sensor_id;sensor_type;location;lat;lon;timestamp;P1;durP1;ratioP1;P2;durP2;ratioP2
13999;SDS011;7075;53.574;10.054;2022-12-20T01:07:16;393.17;;;373.90;;
13999;SDS011;7075;53.574;10.054;2022-12-20T01:09:42;437.10;;;414.30;;
13999;SDS011;7075;53.574;10.054;2022-12-20T01:12:07;342.70;;;325.00;;
13999;SDS011;7075;53.574;10.054;2022-12-20T01:14:33;285.25;;;270.50;;
13999;SDS011;7075;53.574;10.054;2022-12-20T01:16:58;412.03;;;390.57;;
13999;SDS011;7075;53.574;10.054;2022-12-20T01:19:24;402.20;;;380.90;;
13999;SDS011;7075;53.574;10.054;2022-12-20T01:21:52;415.00;;;392.80;;
13999;SDS011;7075;53.574;10.054;2022-12-20T01:24:17;410.80;;;388.98;;
13999;SDS011;7075;53.574;10.054;2022-12-20T01:26:44;400.88;;;379.17;;
13999;SDS011;7075;53.574;10.054;2022-12-20T01:29:11;390.38;;;369.85;;
13999;SDS011;7075;53.574;10.054;2022-12-20T01:31:37;410.20;;;388.17;;
13999;SDS011;7075;53.574;10.054;2022-12-20T01:34:05;385.42;;;365.27;;
13999;SDS011;7075;53.574;10.054;2022-12-20T01:36:32;384.02;;;363.95;;
13999;SDS011;7075;53.574;10.054;2022-12-20T01:39:01;378.00;;;357.80;;
13999;SDS011;7075;53.574;10.054;2022-12-20T01:41:32;382.27;;;361.80;;
13999;SDS011;7075;53.574;10.054;2022-12-20T01:44:00;374.65;;;354.73;;
13999;SDS011;7075;53.574;10.054;2022-12-20T01:46:30;388.08;;;367.17;;
13999;SDS011;7075;53.574;10.054;2022-12-20T01:49:04;384.15;;;363.63;;
13999;SDS011;7075;53.574;10.054;2022-12-20T01:51:51;372.20;;;352.65;;
13999;SDS011;7075;53.574;10.054;2022-12-20T01:54:30;380.05;;;359.92;;
13999;SDS011;7075;53.574;10.054;2022-12-20T01:57:01;349.23;;;330.45;;
13999;SDS011;7075;53.574;10.054;2022-12-20T01:59:28;360.23;;;340.98;;
13999;SDS011;7075;53.574;10.054;2022-12-20T02:01:56;359.65;;;340.42;;
13999;SDS011;7075;53.574;10.054;2022-12-20T02:04:25;375.52;;;355.13;;
13999;SDS011;7075;53.574;10.054;2022-12-20T02:06:51;382.03;;;361.43;;
13999;SDS011;7075;53.574;10.054;2022-12-20T02:09:16;363.73;;;344.05;;
13999;SDS011;7075;53.574;10.054;2022-12-20T02:23:04;381.83;;;361.15;;
13999;SDS011;7075;53.574;10.054;2022-12-20T02:31:13;354.70;;;335.77;;
13999;SDS011;7075;53.574;10.054;2022-12-20T02:33:43;343.00;;;324.65;;
13999;SDS011;7075;53.574;10.054;2022-12-20T02:36:13;335.60;;;318.02;;
13999;SDS011;7075;53.574;10.054;2022-12-20T02:38:40;319.40;;;302.27;;
13999;SDS011;7075;53.574;10.054;2022-12-20T02:41:07;331.13;;;313.10;;
13999;SDS011;7075;53.574;10.054;2022-12-20T02:43:40;323.45;;;306.15;;
13999;SDS011;7075;53.574;10.054;2022-12-20T02:46:28;320.42;;;303.05;;
13999;SDS011;7075;53.574;10.054;2022-12-20T02:48:57;343.17;;;324.52;;
13999;SDS011;7075;53.574;10.054;2022-12-20T02:51:28;339.08;;;320.88;;
13999;SDS011;7075;53.574;10.054;2022-12-20T02:53:56;334.63;;;316.10;;
13999;SDS011;7075;53.574;10.054;2022-12-20T02:56:27;327.17;;;309.43;;
13999;SDS011;7075;53.574;10.054;2022-12-20T03:01:29;324.83;;;307.15;;
13999;SDS011;7075;53.574;10.054;2022-12-20T03:03:58;355.17;;;335.73;;
13999;SDS011;7075;53.574;10.054;2022-12-20T03:06:25;324.60;;;307.02;;
13999;SDS011;7075;53.574;10.054;2022-12-20T03:08:53;334.77;;;316.83;;
13999;SDS011;7075;53.574;10.054;2022-12-20T03:11:19;327.07;;;309.13;;
13999;SDS011;7075;53.574;10.054;2022-12-20T03:13:44;319.87;;;302.70;;
13999;SDS011;7075;53.574;10.054;2022-12-20T03:16:10;307.00;;;290.30;;
13999;SDS011;7075;53.574;10.054;2022-12-20T03:18:36;322.35;;;305.00;;
13999;SDS011;7075;53.574;10.054;2022-12-20T03:21:01;310.17;;;293.13;;
13999;SDS011;7075;53.574;10.054;2022-12-20T03:23:27;299.52;;;283.77;;
13999;SDS011;7075;53.574;10.054;2022-12-20T03:25:53;283.25;;;268.13;;
13999;SDS011;7075;53.574;10.054;2022-12-20T03:28:19;299.08;;;282.83;;
13999;SDS011;7075;53.574;10.054;2022-12-20T03:30:45;291.33;;;275.83;;
13999;SDS011;7075;53.574;10.054;2022-12-20T03:33:11;267.60;;;253.13;;
13999;SDS011;7075;53.574;10.054;2022-12-20T03:35:36;288.53;;;273.00;;
13999;SDS011;7075;53.574;10.054;2022-12-20T03:38:02;260.47;;;246.40;;
13999;SDS011;7075;53.574;10.054;2022-12-20T03:40:27;265.75;;;251.45;;
13999;SDS011;7075;53.574;10.054;2022-12-20T03:42:54;278.83;;;263.65;;
13999;SDS011;7075;53.574;10.054;2022-12-20T03:45:20;276.85;;;261.70;;
13999;SDS011;7075;53.574;10.054;2022-12-20T03:47:45;272.37;;;257.80;;
13999;SDS011;7075;53.574;10.054;2022-12-20T03:50:11;277.80;;;262.87;;
13999;SDS011;7075;53.574;10.054;2022-12-20T03:52:37;289.85;;;274.42;;
13999;SDS011;7075;53.574;10.054;2022-12-20T03:55:03;278.42;;;263.50;;
13999;SDS011;7075;53.574;10.054;2022-12-20T03:57:28;261.13;;;247.20;;
13999;SDS011;7075;53.574;10.054;2022-12-20T03:59:54;272.52;;;257.73;;
13999;SDS011;7075;53.574;10.054;2022-12-20T04:02:24;272.40;;;257.73;;
13999;SDS011;7075;53.574;10.054;2022-12-20T04:04:50;286.60;;;271.15;;
13999;SDS011;7075;53.574;10.054;2022-12-20T04:07:16;264.63;;;250.55;;
13999;SDS011;7075;53.574;10.054;2022-12-20T04:09:42;237.13;;;224.38;;
13999;SDS011;7075;53.574;10.054;2022-12-20T04:12:07;247.20;;;233.95;;
13999;SDS011;7075;53.574;10.054;2022-12-20T04:14:33;226.98;;;214.60;;
13999;SDS011;7075;53.574;10.054;2022-12-20T04:16:59;231.53;;;218.93;;
13999;SDS011;7075;53.574;10.054;2022-12-20T04:19:25;227.37;;;214.87;;
13999;SDS011;7075;53.574;10.054;2022-12-20T04:21:51;210.40;;;198.80;;
13999;SDS011;7075;53.574;10.054;2022-12-20T04:24:16;219.88;;;207.95;;
13999;SDS011;7075;53.574;10.054;2022-12-20T04:26:42;214.95;;;203.10;;
13999;SDS011;7075;53.574;10.054;2022-12-20T04:32:29;208.95;;;197.40;;
13999;SDS011;7075;53.574;10.054;2022-12-20T04:34:55;193.83;;;183.03;;
13999;SDS011;7075;53.574;10.054;2022-12-20T04:37:21;186.97;;;176.27;;
13999;SDS011;7075;53.574;10.054;2022-12-20T04:39:46;190.53;;;179.93;;
13999;SDS011;7075;53.574;10.054;2022-12-20T04:42:12;185.63;;;175.23;;
13999;SDS011;7075;53.574;10.054;2022-12-20T04:44:37;203.23;;;191.87;;
13999;SDS011;7075;53.574;10.054;2022-12-20T04:47:04;193.37;;;182.77;;
13999;SDS011;7075;53.574;10.054;2022-12-20T04:49:30;201.50;;;190.43;;
13999;SDS011;7075;53.574;10.054;2022-12-20T04:51:55;180.10;;;170.02;;
13999;SDS011;7075;53.574;10.054;2022-12-20T04:54:41;183.32;;;173.35;;
13999;SDS011;7075;53.574;10.054;2022-12-20T04:57:06;190.70;;;179.90;;
13999;SDS011;7075;53.574;10.054;2022-12-20T04:59:33;185.63;;;175.23;;
13999;SDS011;7075;53.574;10.054;2022-12-20T05:01:59;221.40;;;209.13;;
13999;SDS011;7075;53.574;10.054;2022-12-20T05:04:25;236.33;;;223.30;;
13999;SDS011;7075;53.574;10.054;2022-12-20T05:06:51;243.30;;;229.90;;
13999;SDS011;7075;53.574;10.054;2022-12-20T05:09:16;265.90;;;251.07;;
13999;SDS011;7075;53.574;10.054;2022-12-20T05:11:41;292.97;;;276.90;;
13999;SDS011;7075;53.574;10.054;2022-12-20T05:14:07;307.57;;;291.07;;
13999;SDS011;7075;53.574;10.054;2022-12-20T05:16:33;308.75;;;292.20;;
13999;SDS011;7075;53.574;10.054;2022-12-20T05:18:58;337.10;;;319.00;;
13999;SDS011;7075;53.574;10.054;2022-12-20T05:21:24;341.10;;;322.73;;
13999;SDS011;7075;53.574;10.054;2022-12-20T05:24:08;338.33;;;319.88;;
13999;SDS011;7075;53.574;10.054;2022-12-20T05:26:52;347.10;;;328.63;;
13999;SDS011;7075;53.574;10.054;2022-12-20T05:29:18;342.83;;;324.38;;
13999;SDS011;7075;53.574;10.054;2022-12-20T05:31:44;336.37;;;318.20;;
13999;SDS011;7075;53.574;10.054;2022-12-20T05:34:09;350.50;;;331.43;;
13999;SDS011;7075;53.574;10.054;2022-12-20T05:36:35;343.47;;;325.10;;
13999;SDS011;7075;53.574;10.054;2022-12-20T05:39:00;337.67;;;319.40;;
13999;SDS011;7075;53.574;10.054;2022-12-20T05:41:26;360.67;;;341.33;;
13999;SDS011;7075;53.574;10.054;2022-12-20T05:43:51;369.63;;;350.00;;
13999;SDS011;7075;53.574;10.054;2022-12-20T05:46:17;373.65;;;353.92;;
13999;SDS011;7075;53.574;10.054;2022-12-20T05:48:42;357.92;;;338.50;;
13999;SDS011;7075;53.574;10.054;2022-12-20T05:51:08;367.47;;;347.87;;
13999;SDS011;7075;53.574;10.054;2022-12-20T05:53:33;360.42;;;341.08;;
13999;SDS011;7075;53.574;10.054;2022-12-20T05:55:59;348.52;;;329.80;;
13999;SDS011;7075;53.574;10.054;2022-12-20T05:58:25;355.58;;;336.48;;
13999;SDS011;7075;53.574;10.054;2022-12-20T06:00:51;340.60;;;322.52;;
13999;SDS011;7075;53.574;10.054;2022-12-20T06:03:17;331.95;;;314.23;;
13999;SDS011;7075;53.574;10.054;2022-12-20T06:05:42;350.73;;;332.03;;
13999;SDS011;7075;53.574;10.054;2022-12-20T06:08:09;361.02;;;341.80;;
13999;SDS011;7075;53.574;10.054;2022-12-20T06:10:36;350.45;;;331.60;;
13999;SDS011;7075;53.574;10.054;2022-12-20T06:13:04;355.73;;;336.85;;
13999;SDS011;7075;53.574;10.054;2022-12-20T06:15:31;369.15;;;349.52;;
13999;SDS011;7075;53.574;10.054;2022-12-20T06:17:57;352.23;;;333.30;;
13999;SDS011;7075;53.574;10.054;2022-12-20T06:20:23;365.15;;;345.50;;
13999;SDS011;7075;53.574;10.054;2022-12-20T06:22:49;368.20;;;348.33;;
13999;SDS011;7075;53.574;10.054;2022-12-20T06:25:15;379.37;;;358.97;;
13999;SDS011;7075;53.574;10.054;2022-12-20T06:27:41;371.48;;;351.50;;
13999;SDS011;7075;53.574;10.054;2022-12-20T06:30:07;382.83;;;362.13;;
13999;SDS011;7075;53.574;10.054;2022-12-20T06:32:33;401.05;;;379.08;;
13999;SDS011;7075;53.574;10.054;2022-12-20T06:34:59;405.10;;;382.55;;
13999;SDS011;7075;53.574;10.054;2022-12-20T06:37:25;430.52;;;407.05;;
13999;SDS011;7075;53.574;10.054;2022-12-20T06:39:50;438.48;;;414.75;;
13999;SDS011;7075;53.574;10.054;2022-12-20T06:42:16;421.70;;;398.73;;
13999;SDS011;7075;53.574;10.054;2022-12-20T06:44:41;426.13;;;402.97;;
13999;SDS011;7075;53.574;10.054;2022-12-20T06:47:07;429.85;;;406.48;;
13999;SDS011;7075;53.574;10.054;2022-12-20T06:49:32;404.17;;;382.73;;
13999;SDS011;7075;53.574;10.054;2022-12-20T06:51:58;399.38;;;377.80;;
13999;SDS011;7075;53.574;10.054;2022-12-20T06:54:23;384.67;;;364.20;;
13999;SDS011;7075;53.574;10.054;2022-12-20T06:56:49;419.63;;;396.53;;
13999;SDS011;7075;53.574;10.054;2022-12-20T06:59:14;430.88;;;407.50;;
13999;SDS011;7075;53.574;10.054;2022-12-20T07:01:41;426.92;;;403.63;;
13999;SDS011;7075;53.574;10.054;2022-12-20T07:04:06;432.27;;;408.63;;
13999;SDS011;7075;53.574;10.054;2022-12-20T07:06:32;415.55;;;393.08;;
13999;SDS011;7075;53.574;10.054;2022-12-20T07:08:58;408.20;;;386.00;;
13999;SDS011;7075;53.574;10.054;2022-12-20T07:11:24;419.95;;;397.20;;
13999;SDS011;7075;53.574;10.054;2022-12-20T07:13:53;417.33;;;395.00;;
13999;SDS011;7075;53.574;10.054;2022-12-20T07:16:19;412.45;;;390.00;;
13999;SDS011;7075;53.574;10.054;2022-12-20T07:18:48;437.43;;;413.83;;
13999;SDS011;7075;53.574;10.054;2022-12-20T07:21:14;421.95;;;399.15;;
13999;SDS011;7075;53.574;10.054;2022-12-20T07:23:41;423.40;;;400.47;;
13999;SDS011;7075;53.574;10.054;2022-12-20T07:26:07;413.03;;;390.50;;
13999;SDS011;7075;53.574;10.054;2022-12-20T07:28:34;434.48;;;410.70;;
13999;SDS011;7075;53.574;10.054;2022-12-20T07:31:00;433.63;;;409.90;;
13999;SDS011;7075;53.574;10.054;2022-12-20T07:33:26;415.07;;;392.47;;
13999;SDS011;7075;53.574;10.054;2022-12-20T07:35:58;431.97;;;408.57;;
13999;SDS011;7075;53.574;10.054;2022-12-20T07:38:24;418.63;;;396.13;;
13999;SDS011;7075;53.574;10.054;2022-12-20T07:40:50;427.83;;;404.52;;
13999;SDS011;7075;53.574;10.054;2022-12-20T07:43:15;425.07;;;401.87;;
13999;SDS011;7075;53.574;10.054;2022-12-20T07:45:41;440.83;;;416.75;;
13999;SDS011;7075;53.574;10.054;2022-12-20T07:48:07;443.17;;;418.80;;
13999;SDS011;7075;53.574;10.054;2022-12-20T07:50:32;435.70;;;412.00;;
13999;SDS011;7075;53.574;10.054;2022-12-20T07:52:59;414.20;;;391.48;;
13999;SDS011;7075;53.574;10.054;2022-12-20T07:55:26;414.70;;;392.17;;
13999;SDS011;7075;53.574;10.054;2022-12-20T07:57:54;414.67;;;392.23;;
13999;SDS011;7075;53.574;10.054;2022-12-20T08:00:25;430.77;;;407.42;;
13999;SDS011;7075;53.574;10.054;2022-12-20T08:02:52;419.20;;;396.25;;
13999;SDS011;7075;53.574;10.054;2022-12-20T08:05:29;434.53;;;411.13;;
13999;SDS011;7075;53.574;10.054;2022-12-20T08:07:56;448.40;;;424.08;;
13999;SDS011;7075;53.574;10.054;2022-12-20T08:10:23;445.13;;;420.77;;
13999;SDS011;7075;53.574;10.054;2022-12-20T08:12:49;445.20;;;420.98;;
13999;SDS011;7075;53.574;10.054;2022-12-20T08:15:15;450.95;;;426.50;;
13999;SDS011;7075;53.574;10.054;2022-12-20T08:17:41;465.15;;;439.65;;
13999;SDS011;7075;53.574;10.054;2022-12-20T08:20:07;454.50;;;429.77;;
13999;SDS011;7075;53.574;10.054;2022-12-20T08:22:33;468.52;;;443.23;;
13999;SDS011;7075;53.574;10.054;2022-12-20T08:24:58;449.85;;;425.10;;
13999;SDS011;7075;53.574;10.054;2022-12-20T08:27:24;434.42;;;410.55;;
13999;SDS011;7075;53.574;10.054;2022-12-20T08:29:50;444.88;;;420.88;;
13999;SDS011;7075;53.574;10.054;2022-12-20T08:32:16;434.80;;;411.25;;
13999;SDS011;7075;53.574;10.054;2022-12-20T08:34:41;405.83;;;383.70;;
13999;SDS011;7075;53.574;10.054;2022-12-20T08:37:07;412.33;;;390.57;;
13999;SDS011;7075;53.574;10.054;2022-12-20T08:39:32;411.45;;;389.00;;
13999;SDS011;7075;53.574;10.054;2022-12-20T08:41:58;393.87;;;372.60;;
13999;SDS011;7075;53.574;10.054;2022-12-20T08:44:23;371.83;;;352.47;;
13999;SDS011;7075;53.574;10.054;2022-12-20T08:46:49;386.23;;;365.55;;
13999;SDS011;7075;53.574;10.054;2022-12-20T08:49:15;404.90;;;383.35;;
13999;SDS011;7075;53.574;10.054;2022-12-20T08:51:41;372.87;;;352.93;;
13999;SDS011;7075;53.574;10.054;2022-12-20T08:54:07;380.20;;;360.10;;
13999;SDS011;7075;53.574;10.054;2022-12-20T08:56:32;380.58;;;360.15;;
13999;SDS011;7075;53.574;10.054;2022-12-20T08:58:58;362.55;;;343.63;;
13999;SDS011;7075;53.574;10.054;2022-12-20T09:01:24;362.60;;;343.37;;
13999;SDS011;7075;53.574;10.054;2022-12-20T09:03:51;353.15;;;334.42;;
13999;SDS011;7075;53.574;10.054;2022-12-20T09:06:18;328.67;;;311.33;;
13999;SDS011;7075;53.574;10.054;2022-12-20T09:08:45;317.95;;;301.13;;
13999;SDS011;7075;53.574;10.054;2022-12-20T09:11:16;317.17;;;300.00;;
13999;SDS011;7075;53.574;10.054;2022-12-20T09:13:44;309.13;;;292.98;;
13999;SDS011;7075;53.574;10.054;2022-12-20T09:16:12;332.42;;;314.92;;
13999;SDS011;7075;53.574;10.054;2022-12-20T09:18:39;347.00;;;328.67;;
13999;SDS011;7075;53.574;10.054;2022-12-20T09:21:05;344.15;;;325.92;;
13999;SDS011;7075;53.574;10.054;2022-12-20T09:23:32;330.73;;;313.23;;
13999;SDS011;7075;53.574;10.054;2022-12-20T09:26:15;350.15;;;331.92;;
13999;SDS011;7075;53.574;10.054;2022-12-20T09:28:42;333.83;;;316.60;;
13999;SDS011;7075;53.574;10.054;2022-12-20T09:31:13;345.17;;;327.23;;
13999;SDS011;7075;53.574;10.054;2022-12-20T09:33:41;357.23;;;338.27;;
13999;SDS011;7075;53.574;10.054;2022-12-20T09:36:09;332.08;;;314.70;;
13999;SDS011;7075;53.574;10.054;2022-12-20T09:38:36;340.98;;;323.27;;
13999;SDS011;7075;53.574;10.054;2022-12-20T09:41:03;337.20;;;319.43;;
13999;SDS011;7075;53.574;10.054;2022-12-20T09:43:30;331.20;;;313.80;;
13999;SDS011;7075;53.574;10.054;2022-12-20T09:45:58;331.50;;;314.13;;
13999;SDS011;7075;53.574;10.054;2022-12-20T09:51:06;326.73;;;309.50;;
13999;SDS011;7075;53.574;10.054;2022-12-20T09:56:42;344.17;;;326.40;;
13999;SDS011;7075;53.574;10.054;2022-12-20T09:59:16;322.25;;;305.70;;
13999;SDS011;7075;53.574;10.054;2022-12-20T10:01:44;329.70;;;312.50;;
13999;SDS011;7075;53.574;10.054;2022-12-20T10:04:32;327.52;;;310.25;;
13999;SDS011;7075;53.574;10.054;2022-12-20T10:07:20;321.40;;;304.60;;
13999;SDS011;7075;53.574;10.054;2022-12-20T10:10:15;343.63;;;325.85;;
13999;SDS011;7075;53.574;10.054;2022-12-20T10:12:56;364.43;;;345.70;;
13999;SDS011;7075;53.574;10.054;2022-12-20T10:15:32;341.40;;;323.65;;
13999;SDS011;7075;53.574;10.054;2022-12-20T10:23:55;337.48;;;319.83;;
13999;SDS011;7075;53.574;10.054;2022-12-20T10:26:25;341.25;;;323.30;;
13999;SDS011;7075;53.574;10.054;2022-12-20T10:28:51;313.85;;;297.58;;
13999;SDS011;7075;53.574;10.054;2022-12-20T10:31:17;326.08;;;309.05;;
13999;SDS011;7075;53.574;10.054;2022-12-20T10:33:43;319.92;;;303.35;;
13999;SDS011;7075;53.574;10.054;2022-12-20T10:36:25;312.48;;;296.25;;
13999;SDS011;7075;53.574;10.054;2022-12-20T10:38:58;295.95;;;280.58;;
13999;SDS011;7075;53.574;10.054;2022-12-20T10:41:27;256.05;;;242.70;;
13999;SDS011;7075;53.574;10.054;2022-12-20T10:43:57;224.43;;;212.57;;
13999;SDS011;7075;53.574;10.054;2022-12-20T10:46:35;246.07;;;233.18;;
13999;SDS011;7075;53.574;10.054;2022-12-20T10:51:59;198.52;;;187.85;;
13999;SDS011;7075;53.574;10.054;2022-12-20T10:54:28;190.57;;;180.23;;
13999;SDS011;7075;53.574;10.054;2022-12-20T10:56:59;174.38;;;164.88;;
13999;SDS011;7075;53.574;10.054;2022-12-20T10:59:32;175.23;;;165.80;;
13999;SDS011;7075;53.574;10.054;2022-12-20T11:02:01;176.25;;;166.70;;
13999;SDS011;7075;53.574;10.054;2022-12-20T11:04:40;171.75;;;162.55;;
13999;SDS011;7075;53.574;10.054;2022-12-20T11:07:23;168.15;;;158.93;;
13999;SDS011;7075;53.574;10.054;2022-12-20T11:09:52;164.15;;;155.35;;
13999;SDS011;7075;53.574;10.054;2022-12-20T11:12:23;159.67;;;151.00;;
13999;SDS011;7075;53.574;10.054;2022-12-20T11:14:48;155.50;;;146.90;;
13999;SDS011;7075;53.574;10.054;2022-12-20T11:17:24;153.30;;;144.80;;
13999;SDS011;7075;53.574;10.054;2022-12-20T11:23:05;142.97;;;135.03;;
13999;SDS011;7075;53.574;10.054;2022-12-20T11:31:16;164.40;;;155.45;;
13999;SDS011;7075;53.574;10.054;2022-12-20T11:37:03;149.75;;;141.55;;
13999;SDS011;7075;53.574;10.054;2022-12-20T11:39:52;155.87;;;147.37;;
13999;SDS011;7075;53.574;10.054;2022-12-20T11:45:22;143.97;;;136.27;;
13999;SDS011;7075;53.574;10.054;2022-12-20T11:50:43;144.20;;;136.30;;
13999;SDS011;7075;53.574;10.054;2022-12-20T11:53:19;146.65;;;138.43;;
13999;SDS011;7075;53.574;10.054;2022-12-20T11:55:57;153.15;;;144.75;;
13999;SDS011;7075;53.574;10.054;2022-12-20T11:58:31;150.18;;;141.70;;
13999;SDS011;7075;53.574;10.054;2022-12-20T12:01:07;144.57;;;136.70;;
13999;SDS011;7075;53.574;10.054;2022-12-20T12:03:40;160.95;;;152.23;;
13999;SDS011;7075;53.574;10.054;2022-12-20T12:06:17;148.85;;;140.57;;
13999;SDS011;7075;53.574;10.054;2022-12-20T12:08:49;140.38;;;132.65;;
13999;SDS011;7075;53.574;10.054;2022-12-20T12:11:23;147.25;;;139.32;;
13999;SDS011;7075;53.574;10.054;2022-12-20T12:13:51;144.60;;;136.80;;
13999;SDS011;7075;53.574;10.054;2022-12-20T12:19:06;146.13;;;138.10;;
13999;SDS011;7075;53.574;10.054;2022-12-20T12:21:35;146.50;;;138.43;;
13999;SDS011;7075;53.574;10.054;2022-12-20T12:24:07;146.63;;;138.50;;
13999;SDS011;7075;53.574;10.054;2022-12-20T12:27:13;151.65;;;143.30;;
13999;SDS011;7075;53.574;10.054;2022-12-20T12:29:45;146.97;;;138.87;;
13999;SDS011;7075;53.574;10.054;2022-12-20T12:32:34;155.23;;;146.57;;
13999;SDS011;7075;53.574;10.054;2022-12-20T12:37:36;156.40;;;147.95;;
13999;SDS011;7075;53.574;10.054;2022-12-20T12:46:10;173.65;;;164.07;;
13999;SDS011;7075;53.574;10.054;2022-12-20T12:49:00;218.65;;;206.95;;
13999;SDS011;7075;53.574;10.054;2022-12-20T12:51:35;262.52;;;248.40;;
13999;SDS011;7075;53.574;10.054;2022-12-20T12:56:52;285.73;;;270.88;;
13999;SDS011;7075;53.574;10.054;2022-12-20T12:59:45;287.15;;;271.98;;
13999;SDS011;7075;53.574;10.054;2022-12-20T13:15:00;269.08;;;255.15;;
13999;SDS011;7075;53.574;10.054;2022-12-20T13:19:52;266.63;;;252.77;;
13999;SDS011;7075;53.574;10.054;2022-12-20T13:22:20;271.25;;;257.02;;
13999;SDS011;7075;53.574;10.054;2022-12-20T13:25:00;266.48;;;252.55;;
13999;SDS011;7075;53.574;10.054;2022-12-20T13:27:39;268.15;;;254.13;;
13999;SDS011;7075;53.574;10.054;2022-12-20T13:37:54;257.20;;;243.38;;
13999;SDS011;7075;53.574;10.054;2022-12-20T13:40:45;258.20;;;244.60;;
13999;SDS011;7075;53.574;10.054;2022-12-20T13:45:50;271.23;;;256.88;;
13999;SDS011;7075;53.574;10.054;2022-12-20T13:48:25;266.65;;;252.65;;
13999;SDS011;7075;53.574;10.054;2022-12-20T13:50:54;288.63;;;273.27;;
13999;SDS011;7075;53.574;10.054;2022-12-20T13:53:21;287.58;;;272.52;;
13999;SDS011;7075;53.574;10.054;2022-12-20T13:55:49;279.48;;;264.63;;
13999;SDS011;7075;53.574;10.054;2022-12-20T13:58:15;279.35;;;264.65;;
13999;SDS011;7075;53.574;10.054;2022-12-20T14:00:47;267.65;;;253.55;;
13999;SDS011;7075;53.574;10.054;2022-12-20T14:03:47;266.63;;;252.67;;
13999;SDS011;7075;53.574;10.054;2022-12-20T14:06:09;284.77;;;269.97;;
13999;SDS011;7075;53.574;10.054;2022-12-20T14:08:37;278.55;;;263.90;;
13999;SDS011;7075;53.574;10.054;2022-12-20T14:13:38;285.23;;;270.25;;
13999;SDS011;7075;53.574;10.054;2022-12-20T14:16:06;278.35;;;263.88;;
13999;SDS011;7075;53.574;10.054;2022-12-20T14:18:38;290.75;;;275.52;;
13999;SDS011;7075;53.574;10.054;2022-12-20T14:21:04;294.35;;;278.95;;
13999;SDS011;7075;53.574;10.054;2022-12-20T14:23:40;324.73;;;307.98;;
13999;SDS011;7075;53.574;10.054;2022-12-20T14:26:14;315.10;;;298.92;;
13999;SDS011;7075;53.574;10.054;2022-12-20T14:28:43;313.45;;;297.02;;
13999;SDS011;7075;53.574;10.054;2022-12-20T14:36:43;304.10;;;288.23;;
13999;SDS011;7075;53.574;10.054;2022-12-20T14:39:29;293.35;;;278.10;;
13999;SDS011;7075;53.574;10.054;2022-12-20T14:44:25;303.97;;;287.77;;
13999;SDS011;7075;53.574;10.054;2022-12-20T14:46:53;299.52;;;283.90;;
13999;SDS011;7075;53.574;10.054;2022-12-20T14:49:36;287.35;;;272.30;;
13999;SDS011;7075;53.574;10.054;2022-12-20T14:52:25;293.33;;;277.80;;
13999;SDS011;7075;53.574;10.054;2022-12-20T14:55:06;293.65;;;277.98;;
13999;SDS011;7075;53.574;10.054;2022-12-20T15:08:19;322.92;;;306.00;;
13999;SDS011;7075;53.574;10.054;2022-12-20T15:13:41;311.73;;;295.75;;
13999;SDS011;7075;53.574;10.054;2022-12-20T15:16:19;308.30;;;292.63;;
13999;SDS011;7075;53.574;10.054;2022-12-20T15:18:53;287.02;;;272.42;;
13999;SDS011;7075;53.574;10.054;2022-12-20T15:23:57;308.52;;;292.75;;
13999;SDS011;7075;53.574;10.054;2022-12-20T15:26:27;292.13;;;277.02;;
13999;SDS011;7075;53.574;10.054;2022-12-20T15:28:54;280.40;;;266.13;;
13999;SDS011;7075;53.574;10.054;2022-12-20T15:31:21;310.38;;;294.38;;
13999;SDS011;7075;53.574;10.054;2022-12-20T15:33:48;309.20;;;293.40;;
13999;SDS011;7075;53.574;10.054;2022-12-20T15:36:22;295.00;;;279.93;;
13999;SDS011;7075;53.574;10.054;2022-12-20T15:38:50;288.73;;;274.00;;
13999;SDS011;7075;53.574;10.054;2022-12-20T15:41:24;292.85;;;277.77;;
13999;SDS011;7075;53.574;10.054;2022-12-20T15:43:53;279.20;;;264.60;;
13999;SDS011;7075;53.574;10.054;2022-12-20T15:46:20;298.50;;;282.60;;
13999;SDS011;7075;53.574;10.054;2022-12-20T15:48:46;315.83;;;299.27;;
13999;SDS011;7075;53.574;10.054;2022-12-20T15:51:13;318.63;;;301.60;;
13999;SDS011;7075;53.574;10.054;2022-12-20T15:53:48;305.35;;;289.20;;
13999;SDS011;7075;53.574;10.054;2022-12-20T15:56:17;298.00;;;282.07;;
13999;SDS011;7075;53.574;10.054;2022-12-20T15:58:45;294.45;;;278.92;;
13999;SDS011;7075;53.574;10.054;2022-12-20T16:01:12;288.63;;;273.58;;
13999;SDS011;7075;53.574;10.054;2022-12-20T16:03:42;295.25;;;279.90;;
13999;SDS011;7075;53.574;10.054;2022-12-20T16:06:09;286.57;;;271.87;;
13999;SDS011;7075;53.574;10.054;2022-12-20T16:08:36;285.70;;;270.88;;
13999;SDS011;7075;53.574;10.054;2022-12-20T16:11:03;281.63;;;266.88;;
13999;SDS011;7075;53.574;10.054;2022-12-20T16:13:30;303.03;;;287.63;;
13999;SDS011;7075;53.574;10.054;2022-12-20T16:15:55;302.90;;;287.07;;
13999;SDS011;7075;53.574;10.054;2022-12-20T16:18:21;311.67;;;295.50;;
13999;SDS011;7075;53.574;10.054;2022-12-20T16:20:46;304.23;;;288.27;;
13999;SDS011;7075;53.574;10.054;2022-12-20T16:23:16;284.20;;;269.47;;
13999;SDS011;7075;53.574;10.054;2022-12-20T16:25:46;286.48;;;271.52;;
13999;SDS011;7075;53.574;10.054;2022-12-20T16:28:15;288.83;;;273.80;;
13999;SDS011;7075;53.574;10.054;2022-12-20T16:30:41;274.88;;;260.52;;
13999;SDS011;7075;53.574;10.054;2022-12-20T16:33:15;283.10;;;268.35;;
13999;SDS011;7075;53.574;10.054;2022-12-20T16:35:43;300.58;;;285.15;;
13999;SDS011;7075;53.574;10.054;2022-12-20T16:38:09;293.90;;;278.40;;
13999;SDS011;7075;53.574;10.054;2022-12-20T16:40:34;300.10;;;284.63;;
13999;SDS011;7075;53.574;10.054;2022-12-20T16:43:00;297.33;;;281.37;;
13999;SDS011;7075;53.574;10.054;2022-12-20T16:45:29;284.35;;;269.35;;
13999;SDS011;7075;53.574;10.054;2022-12-20T16:47:56;302.25;;;286.27;;
13999;SDS011;7075;53.574;10.054;2022-12-20T16:50:23;301.90;;;286.02;;
13999;SDS011;7075;53.574;10.054;2022-12-20T16:52:50;290.73;;;275.55;;
13999;SDS011;7075;53.574;10.054;2022-12-20T16:55:20;295.33;;;279.90;;
13999;SDS011;7075;53.574;10.054;2022-12-20T16:57:50;297.10;;;281.40;;
13999;SDS011;7075;53.574;10.054;2022-12-20T17:00:20;321.23;;;304.38;;
13999;SDS011;7075;53.574;10.054;2022-12-20T17:02:48;309.13;;;292.90;;
13999;SDS011;7075;53.574;10.054;2022-12-20T17:05:23;301.05;;;285.25;;
13999;SDS011;7075;53.574;10.054;2022-12-20T17:07:56;298.77;;;283.25;;
13999;SDS011;7075;53.574;10.054;2022-12-20T17:10:22;301.93;;;286.13;;
13999;SDS011;7075;53.574;10.054;2022-12-20T17:12:49;290.63;;;275.38;;
13999;SDS011;7075;53.574;10.054;2022-12-20T17:15:16;295.00;;;279.65;;